sensor_id;sensor_type;location;lat;lon;timestamp;P1;durP1;ratioP1;P2;durP2;ratioP2
22939;SDS011;11636;52.086;5.090;2023-11-21T00:01:50;23.40;;;10.93;;
22939;SDS011;11636;52.086;5.090;2023-11-21T00:04:18;20.13;;;10.43;;
22939;SDS011;11636;52.086;5.090;2023-11-21T00:06:45;25.63;;;11.20;;
22939;SDS011;11636;52.086;5.090;2023-11-21T00:09:19;19.95;;;10.13;;
22939;SDS011;11636;52.086;5.090;2023-11-21T00:11:46;17.85;;;10.15;;
22939;SDS011;11636;52.086;5.090;2023-11-21T00:14:19;19.17;;;10.43;;
22939;SDS011;11636;52.086;5.090;2023-11-21T00:16:52;19.52;;;10.63;;
22939;SDS011;11636;52.086;5.090;2023-11-21T00:19:19;19.38;;;10.55;;
22939;SDS011;11636;52.086;5.090;2023-11-21T00:21:46;26.23;;;10.38;;
22939;SDS011;11636;52.086;5.090;2023-11-21T00:24:19;20.52;;;10.68;;
22939;SDS011;11636;52.086;5.090;2023-11-21T00:26:46;18.48;;;9.80;;
22939;SDS011;11636;52.086;5.090;2023-11-21T00:29:21;17.58;;;10.27;;
22939;SDS011;11636;52.086;5.090;2023-11-21T00:31:48;16.70;;;9.45;;
22939;SDS011;11636;52.086;5.090;2023-11-21T00:34:21;16.13;;;9.18;;
22939;SDS011;11636;52.086;5.090;2023-11-21T00:36:48;14.25;;;9.30;;
22939;SDS011;11636;52.086;5.090;2023-11-21T00:39:21;14.57;;;8.85;;
22939;SDS011;11636;52.086;5.090;2023-11-21T00:41:55;13.85;;;8.57;;
22939;SDS011;11636;52.086;5.090;2023-11-21T00:44:28;14.63;;;9.23;;
22939;SDS011;11636;52.086;5.090;2023-11-21T00:47:01;14.25;;;8.50;;
22939;SDS011;11636;52.086;5.090;2023-11-21T00:49:35;11.73;;;8.45;;
22939;SDS011;11636;52.086;5.090;2023-11-21T00:52:08;12.07;;;7.93;;
22939;SDS011;11636;52.086;5.090;2023-11-21T00:54:35;13.32;;;7.93;;
22939;SDS011;11636;52.086;5.090;2023-11-21T00:57:08;13.05;;;7.32;;
22939;SDS011;11636;52.086;5.090;2023-11-21T00:59:37;11.35;;;7.00;;
22939;SDS011;11636;52.086;5.090;2023-11-21T01:02:10;11.45;;;7.85;;
22939;SDS011;11636;52.086;5.090;2023-11-21T01:04:43;11.63;;;7.22;;
22939;SDS011;11636;52.086;5.090;2023-11-21T01:07:10;12.00;;;7.68;;
22939;SDS011;11636;52.086;5.090;2023-11-21T01:09:43;12.32;;;8.07;;
22939;SDS011;11636;52.086;5.090;2023-11-21T01:12:16;12.50;;;7.93;;
22939;SDS011;11636;52.086;5.090;2023-11-21T01:14:43;12.00;;;7.47;;
22939;SDS011;11636;52.086;5.090;2023-11-21T01:17:17;13.65;;;7.43;;
22939;SDS011;11636;52.086;5.090;2023-11-21T01:19:50;12.57;;;7.45;;
22939;SDS011;11636;52.086;5.090;2023-11-21T01:22:18;12.10;;;7.43;;
22939;SDS011;11636;52.086;5.090;2023-11-21T01:24:54;12.45;;;7.45;;
22939;SDS011;11636;52.086;5.090;2023-11-21T01:27:22;12.43;;;7.85;;
22939;SDS011;11636;52.086;5.090;2023-11-21T01:29:55;14.40;;;7.70;;
22939;SDS011;11636;52.086;5.090;2023-11-21T01:32:22;12.10;;;7.55;;
22939;SDS011;11636;52.086;5.090;2023-11-21T01:34:50;13.93;;;7.82;;
22939;SDS011;11636;52.086;5.090;2023-11-21T01:37:23;11.85;;;7.43;;
22939;SDS011;11636;52.086;5.090;2023-11-21T01:40:04;12.02;;;6.90;;
22939;SDS011;11636;52.086;5.090;2023-11-21T01:42:42;12.30;;;7.05;;
22939;SDS011;11636;52.086;5.090;2023-11-21T01:45:13;12.13;;;7.25;;
22939;SDS011;11636;52.086;5.090;2023-11-21T01:47:41;12.25;;;7.40;;
22939;SDS011;11636;52.086;5.090;2023-11-21T01:50:18;14.63;;;7.68;;
22939;SDS011;11636;52.086;5.090;2023-11-21T01:52:52;10.95;;;6.97;;
22939;SDS011;11636;52.086;5.090;2023-11-21T01:55:25;13.75;;;7.75;;
22939;SDS011;11636;52.086;5.090;2023-11-21T01:57:54;15.57;;;7.78;;
22939;SDS011;11636;52.086;5.090;2023-11-21T02:00:29;14.18;;;7.53;;
22939;SDS011;11636;52.086;5.090;2023-11-21T02:03:04;12.90;;;7.93;;
22939;SDS011;11636;52.086;5.090;2023-11-21T02:05:38;14.20;;;6.82;;
22939;SDS011;11636;52.086;5.090;2023-11-21T02:08:11;14.10;;;7.85;;
22939;SDS011;11636;52.086;5.090;2023-11-21T02:10:45;14.43;;;7.50;;
22939;SDS011;11636;52.086;5.090;2023-11-21T02:13:12;14.15;;;7.65;;
22939;SDS011;11636;52.086;5.090;2023-11-21T02:15:39;17.05;;;8.02;;
22939;SDS011;11636;52.086;5.090;2023-11-21T02:18:12;14.23;;;7.72;;
22939;SDS011;11636;52.086;5.090;2023-11-21T02:20:41;13.55;;;7.88;;
22939;SDS011;11636;52.086;5.090;2023-11-21T02:23:16;12.48;;;7.22;;
22939;SDS011;11636;52.086;5.090;2023-11-21T02:25:50;13.60;;;7.15;;
22939;SDS011;11636;52.086;5.090;2023-11-21T02:28:18;13.55;;;7.70;;
22939;SDS011;11636;52.086;5.090;2023-11-21T02:30:58;13.90;;;8.15;;
22939;SDS011;11636;52.086;5.090;2023-11-21T02:33:32;12.40;;;7.38;;
22939;SDS011;11636;52.086;5.090;2023-11-21T02:36:07;13.68;;;7.55;;
22939;SDS011;11636;52.086;5.090;2023-11-21T02:38:41;13.65;;;7.32;;
22939;SDS011;11636;52.086;5.090;2023-11-21T02:41:13;13.80;;;7.53;;
22939;SDS011;11636;52.086;5.090;2023-11-21T02:43:46;14.32;;;7.45;;
22939;SDS011;11636;52.086;5.090;2023-11-21T02:46:13;15.63;;;7.68;;
22939;SDS011;11636;52.086;5.090;2023-11-21T02:48:47;14.63;;;7.55;;
22939;SDS011;11636;52.086;5.090;2023-11-21T02:51:20;13.40;;;7.63;;
22939;SDS011;11636;52.086;5.090;2023-11-21T02:53:46;14.75;;;7.22;;
22939;SDS011;11636;52.086;5.090;2023-11-21T02:56:20;15.00;;;7.93;;
22939;SDS011;11636;52.086;5.090;2023-11-21T02:58:55;15.02;;;7.65;;
22939;SDS011;11636;52.086;5.090;2023-11-21T03:01:29;12.70;;;7.13;;
22939;SDS011;11636;52.086;5.090;2023-11-21T03:03:56;13.10;;;7.47;;
22939;SDS011;11636;52.086;5.090;2023-11-21T03:06:30;14.50;;;7.93;;
22939;SDS011;11636;52.086;5.090;2023-11-21T03:09:03;13.93;;;7.95;;
22939;SDS011;11636;52.086;5.090;2023-11-21T03:11:29;12.80;;;7.60;;
22939;SDS011;11636;52.086;5.090;2023-11-21T03:13:57;14.35;;;7.93;;
22939;SDS011;11636;52.086;5.090;2023-11-21T03:16:34;13.45;;;7.63;;
22939;SDS011;11636;52.086;5.090;2023-11-21T03:19:08;15.30;;;8.00;;
22939;SDS011;11636;52.086;5.090;2023-11-21T03:21:41;15.57;;;8.68;;
22939;SDS011;11636;52.086;5.090;2023-11-21T03:24:07;16.38;;;7.72;;
22939;SDS011;11636;52.086;5.090;2023-11-21T03:26:41;15.07;;;8.63;;
22939;SDS011;11636;52.086;5.090;2023-11-21T03:29:08;14.95;;;7.57;;
22939;SDS011;11636;52.086;5.090;2023-11-21T03:31:42;14.57;;;7.82;;
22939;SDS011;11636;52.086;5.090;2023-11-21T03:34:16;13.25;;;8.43;;
22939;SDS011;11636;52.086;5.090;2023-11-21T03:36:57;17.38;;;7.95;;
22939;SDS011;11636;52.086;5.090;2023-11-21T03:39:24;15.15;;;8.55;;
22939;SDS011;11636;52.086;5.090;2023-11-21T03:41:58;16.55;;;8.25;;
22939;SDS011;11636;52.086;5.090;2023-11-21T03:44:31;17.20;;;7.68;;
22939;SDS011;11636;52.086;5.090;2023-11-21T03:47:04;15.77;;;7.80;;
22939;SDS011;11636;52.086;5.090;2023-11-21T03:49:31;14.50;;;7.22;;
22939;SDS011;11636;52.086;5.090;2023-11-21T03:51:58;16.40;;;8.52;;
22939;SDS011;11636;52.086;5.090;2023-11-21T03:54:32;17.42;;;8.85;;
22939;SDS011;11636;52.086;5.090;2023-11-21T03:56:58;16.08;;;7.97;;
22939;SDS011;11636;52.086;5.090;2023-11-21T03:59:32;13.80;;;7.95;;
22939;SDS011;11636;52.086;5.090;2023-11-21T04:01:58;19.45;;;8.70;;
22939;SDS011;11636;52.086;5.090;2023-11-21T04:04:25;18.05;;;8.40;;
22939;SDS011;11636;52.086;5.090;2023-11-21T04:06:59;17.15;;;8.18;;
22939;SDS011;11636;52.086;5.090;2023-11-21T04:09:32;18.83;;;9.32;;
22939;SDS011;11636;52.086;5.090;2023-11-21T04:11:59;16.27;;;8.60;;
22939;SDS011;11636;52.086;5.090;2023-11-21T04:14:25;17.13;;;8.45;;
22939;SDS011;11636;52.086;5.090;2023-11-21T04:17:01;16.15;;;8.20;;
22939;SDS011;11636;52.086;5.090;2023-11-21T04:19:28;16.55;;;8.43;;
22939;SDS011;11636;52.086;5.090;2023-11-21T04:22:01;16.08;;;7.88;;
22939;SDS011;11636;52.086;5.090;2023-11-21T04:24:34;19.40;;;8.85;;
22939;SDS011;11636;52.086;5.090;2023-11-21T04:27:00;18.42;;;8.98;;
22939;SDS011;11636;52.086;5.090;2023-11-21T04:29:35;15.50;;;8.10;;
22939;SDS011;11636;52.086;5.090;2023-11-21T04:32:01;17.70;;;9.02;;
22939;SDS011;11636;52.086;5.090;2023-11-21T04:34:35;18.23;;;8.93;;
22939;SDS011;11636;52.086;5.090;2023-11-21T04:37:02;13.90;;;7.90;;
22939;SDS011;11636;52.086;5.090;2023-11-21T04:39:36;16.15;;;8.30;;
22939;SDS011;11636;52.086;5.090;2023-11-21T04:42:03;14.73;;;7.65;;
22939;SDS011;11636;52.086;5.090;2023-11-21T04:44:36;15.65;;;7.10;;
22939;SDS011;11636;52.086;5.090;2023-11-21T04:47:09;14.63;;;7.43;;
22939;SDS011;11636;52.086;5.090;2023-11-21T04:49:36;14.82;;;7.65;;
22939;SDS011;11636;52.086;5.090;2023-11-21T04:52:10;15.73;;;7.32;;
22939;SDS011;11636;52.086;5.090;2023-11-21T04:54:37;13.63;;;6.60;;
22939;SDS011;11636;52.086;5.090;2023-11-21T04:57:10;16.08;;;8.30;;
22939;SDS011;11636;52.086;5.090;2023-11-21T04:59:38;14.98;;;6.78;;
22939;SDS011;11636;52.086;5.090;2023-11-21T05:02:17;17.83;;;8.43;;
22939;SDS011;11636;52.086;5.090;2023-11-21T05:05:01;16.33;;;8.02;;
22939;SDS011;11636;52.086;5.090;2023-11-21T05:07:28;15.25;;;6.90;;
22939;SDS011;11636;52.086;5.090;2023-11-21T05:10:03;16.55;;;6.85;;
22939;SDS011;11636;52.086;5.090;2023-11-21T05:12:45;14.48;;;7.15;;
22939;SDS011;11636;52.086;5.090;2023-11-21T05:15:19;12.77;;;6.82;;
22939;SDS011;11636;52.086;5.090;2023-11-21T05:17:46;16.60;;;7.53;;
22939;SDS011;11636;52.086;5.090;2023-11-21T05:20:22;12.07;;;6.45;;
22939;SDS011;11636;52.086;5.090;2023-11-21T05:22:50;15.35;;;7.05;;
22939;SDS011;11636;52.086;5.090;2023-11-21T05:25:23;11.43;;;6.63;;
22939;SDS011;11636;52.086;5.090;2023-11-21T05:27:50;13.85;;;7.10;;
22939;SDS011;11636;52.086;5.090;2023-11-21T05:30:23;15.40;;;7.18;;
22939;SDS011;11636;52.086;5.090;2023-11-21T05:32:49;11.40;;;6.78;;
22939;SDS011;11636;52.086;5.090;2023-11-21T05:35:16;13.10;;;6.35;;
22939;SDS011;11636;52.086;5.090;2023-11-21T05:37:50;12.30;;;6.78;;
22939;SDS011;11636;52.086;5.090;2023-11-21T05:40:17;11.15;;;6.22;;
22939;SDS011;11636;52.086;5.090;2023-11-21T05:42:50;12.80;;;6.50;;
22939;SDS011;11636;52.086;5.090;2023-11-21T05:45:18;14.60;;;7.05;;
22939;SDS011;11636;52.086;5.090;2023-11-21T05:47:45;15.73;;;7.55;;
22939;SDS011;11636;52.086;5.090;2023-11-21T05:50:19;16.95;;;7.95;;
22939;SDS011;11636;52.086;5.090;2023-11-21T05:52:46;16.63;;;8.02;;
22939;SDS011;11636;52.086;5.090;2023-11-21T05:55:14;17.58;;;8.27;;
22939;SDS011;11636;52.086;5.090;2023-11-21T05:57:48;16.98;;;8.57;;
22939;SDS011;11636;52.086;5.090;2023-11-21T06:00:15;19.95;;;8.18;;
22939;SDS011;11636;52.086;5.090;2023-11-21T06:02:53;19.08;;;8.48;;
22939;SDS011;11636;52.086;5.090;2023-11-21T06:05:22;13.55;;;7.95;;
22939;SDS011;11636;52.086;5.090;2023-11-21T06:07:56;18.95;;;9.23;;
22939;SDS011;11636;52.086;5.090;2023-11-21T06:10:27;19.65;;;9.13;;
22939;SDS011;11636;52.086;5.090;2023-11-21T06:13:01;16.35;;;8.23;;
22939;SDS011;11636;52.086;5.090;2023-11-21T06:15:31;17.33;;;9.40;;
22939;SDS011;11636;52.086;5.090;2023-11-21T06:18:04;18.60;;;8.75;;
22939;SDS011;11636;52.086;5.090;2023-11-21T06:20:42;17.27;;;8.85;;
22939;SDS011;11636;52.086;5.090;2023-11-21T06:23:15;15.93;;;8.15;;
22939;SDS011;11636;52.086;5.090;2023-11-21T06:25:42;18.58;;;8.07;;
22939;SDS011;11636;52.086;5.090;2023-11-21T06:28:16;17.65;;;8.48;;
22939;SDS011;11636;52.086;5.090;2023-11-21T06:30:44;14.73;;;8.77;;
22939;SDS011;11636;52.086;5.090;2023-11-21T06:33:11;15.18;;;8.43;;
22939;SDS011;11636;52.086;5.090;2023-11-21T06:35:45;16.00;;;8.18;;
22939;SDS011;11636;52.086;5.090;2023-11-21T06:38:12;17.17;;;8.48;;
22939;SDS011;11636;52.086;5.090;2023-11-21T06:40:39;19.55;;;9.00;;
22939;SDS011;11636;52.086;5.090;2023-11-21T06:43:13;16.70;;;7.97;;
22939;SDS011;11636;52.086;5.090;2023-11-21T06:45:40;14.25;;;7.97;;
22939;SDS011;11636;52.086;5.090;2023-11-21T06:48:15;14.23;;;7.50;;
22939;SDS011;11636;52.086;5.090;2023-11-21T06:50:42;14.55;;;7.93;;
22939;SDS011;11636;52.086;5.090;2023-11-21T06:53:15;16.60;;;8.35;;
22939;SDS011;11636;52.086;5.090;2023-11-21T06:55:48;13.73;;;8.85;;
22939;SDS011;11636;52.086;5.090;2023-11-21T06:58:15;16.02;;;7.90;;
22939;SDS011;11636;52.086;5.090;2023-11-21T07:00:48;14.50;;;7.32;;
22939;SDS011;11636;52.086;5.090;2023-11-21T07:03:19;12.80;;;8.13;;
22939;SDS011;11636;52.086;5.090;2023-11-21T07:05:52;17.00;;;8.88;;
22939;SDS011;11636;52.086;5.090;2023-11-21T07:08:26;11.80;;;7.60;;
22939;SDS011;11636;52.086;5.090;2023-11-21T07:10:53;13.00;;;7.40;;
22939;SDS011;11636;52.086;5.090;2023-11-21T07:13:26;13.32;;;7.60;;
22939;SDS011;11636;52.086;5.090;2023-11-21T07:15:59;16.30;;;8.35;;
22939;SDS011;11636;52.086;5.090;2023-11-21T07:18:32;12.88;;;7.20;;
22939;SDS011;11636;52.086;5.090;2023-11-21T07:20:59;13.25;;;6.57;;
22939;SDS011;11636;52.086;5.090;2023-11-21T07:23:32;11.75;;;6.43;;
22939;SDS011;11636;52.086;5.090;2023-11-21T07:25:59;11.63;;;6.80;;
22939;SDS011;11636;52.086;5.090;2023-11-21T07:28:32;12.45;;;6.00;;
22939;SDS011;11636;52.086;5.090;2023-11-21T07:30:59;10.90;;;6.45;;
22939;SDS011;11636;52.086;5.090;2023-11-21T07:33:32;11.30;;;6.55;;
22939;SDS011;11636;52.086;5.090;2023-11-21T07:36:05;10.20;;;6.22;;
22939;SDS011;11636;52.086;5.090;2023-11-21T07:38:41;14.77;;;7.28;;
22939;SDS011;11636;52.086;5.090;2023-11-21T07:41:15;12.95;;;6.57;;
22939;SDS011;11636;52.086;5.090;2023-11-21T07:43:56;9.80;;;6.70;;
22939;SDS011;11636;52.086;5.090;2023-11-21T07:46:30;16.88;;;8.63;;
22939;SDS011;11636;52.086;5.090;2023-11-21T07:49:04;14.15;;;7.07;;
22939;SDS011;11636;52.086;5.090;2023-11-21T07:51:31;10.90;;;5.82;;
22939;SDS011;11636;52.086;5.090;2023-11-21T07:53:58;8.93;;;4.80;;
22939;SDS011;11636;52.086;5.090;2023-11-21T07:56:31;8.55;;;4.47;;
22939;SDS011;11636;52.086;5.090;2023-11-21T07:58:58;10.98;;;4.88;;
22939;SDS011;11636;52.086;5.090;2023-11-21T08:01:31;11.75;;;4.72;;
22939;SDS011;11636;52.086;5.090;2023-11-21T08:03:59;11.48;;;5.72;;
22939;SDS011;11636;52.086;5.090;2023-11-21T08:06:36;8.93;;;4.63;;
22939;SDS011;11636;52.086;5.090;2023-11-21T08:09:10;10.07;;;4.78;;
22939;SDS011;11636;52.086;5.090;2023-11-21T08:11:45;8.57;;;4.55;;
22939;SDS011;11636;52.086;5.090;2023-11-21T08:14:13;9.20;;;4.53;;
22939;SDS011;11636;52.086;5.090;2023-11-21T08:16:39;8.25;;;4.53;;
22939;SDS011;11636;52.086;5.090;2023-11-21T08:19:13;9.55;;;4.40;;
22939;SDS011;11636;52.086;5.090;2023-11-21T08:21:40;12.07;;;5.10;;
22939;SDS011;11636;52.086;5.090;2023-11-21T08:24:07;9.30;;;4.93;;
22939;SDS011;11636;52.086;5.090;2023-11-21T08:26:43;10.95;;;5.13;;
22939;SDS011;11636;52.086;5.090;2023-11-21T08:29:16;14.27;;;5.50;;
22939;SDS011;11636;52.086;5.090;2023-11-21T08:31:49;9.85;;;5.25;;
22939;SDS011;11636;52.086;5.090;2023-11-21T08:34:22;9.45;;;4.78;;
22939;SDS011;11636;52.086;5.090;2023-11-21T08:36:50;13.95;;;6.20;;
22939;SDS011;11636;52.086;5.090;2023-11-21T08:39:23;12.43;;;6.03;;
22939;SDS011;11636;52.086;5.090;2023-11-21T08:41:50;11.73;;;5.80;;
22939;SDS011;11636;52.086;5.090;2023-11-21T08:44:23;10.60;;;5.40;;
22939;SDS011;11636;52.086;5.090;2023-11-21T08:46:51;11.43;;;6.28;;
22939;SDS011;11636;52.086;5.090;2023-11-21T08:49:18;11.77;;;5.40;;
22939;SDS011;11636;52.086;5.090;2023-11-21T08:51:51;15.10;;;6.95;;
22939;SDS011;11636;52.086;5.090;2023-11-21T08:54:18;12.43;;;6.32;;
22939;SDS011;11636;52.086;5.090;2023-11-21T08:56:53;11.98;;;6.10;;
22939;SDS011;11636;52.086;5.090;2023-11-21T08:59:27;11.90;;;6.25;;
22939;SDS011;11636;52.086;5.090;2023-11-21T09:02:00;12.98;;;6.78;;
22939;SDS011;11636;52.086;5.090;2023-11-21T09:04:27;12.55;;;6.57;;
22939;SDS011;11636;52.086;5.090;2023-11-21T09:07:00;13.50;;;6.30;;
22939;SDS011;11636;52.086;5.090;2023-11-21T09:09:33;12.63;;;6.22;;
22939;SDS011;11636;52.086;5.090;2023-11-21T09:12:00;14.48;;;6.97;;
22939;SDS011;11636;52.086;5.090;2023-11-21T09:14:34;13.00;;;6.18;;
22939;SDS011;11636;52.086;5.090;2023-11-21T09:17:01;13.65;;;7.88;;
22939;SDS011;11636;52.086;5.090;2023-11-21T09:19:35;11.60;;;6.00;;
22939;SDS011;11636;52.086;5.090;2023-11-21T09:22:03;11.07;;;5.97;;
22939;SDS011;11636;52.086;5.090;2023-11-21T09:24:33;7.97;;;4.22;;
22939;SDS011;11636;52.086;5.090;2023-11-21T09:27:07;7.28;;;4.25;;
22939;SDS011;11636;52.086;5.090;2023-11-21T09:29:42;7.57;;;4.43;;
22939;SDS011;11636;52.086;5.090;2023-11-21T09:32:10;6.90;;;4.25;;
22939;SDS011;11636;52.086;5.090;2023-11-21T09:34:37;7.18;;;4.03;;
22939;SDS011;11636;52.086;5.090;2023-11-21T09:37:11;9.88;;;4.05;;
22939;SDS011;11636;52.086;5.090;2023-11-21T09:39:38;7.72;;;4.55;;
22939;SDS011;11636;52.086;5.090;2023-11-21T09:42:13;9.95;;;4.43;;
22939;SDS011;11636;52.086;5.090;2023-11-21T09:44:48;10.43;;;5.15;;
22939;SDS011;11636;52.086;5.090;2023-11-21T09:47:35;9.05;;;4.50;;
22939;SDS011;11636;52.086;5.090;2023-11-21T09:50:10;7.28;;;4.32;;
22939;SDS011;11636;52.086;5.090;2023-11-21T09:53:07;8.00;;;4.55;;
22939;SDS011;11636;52.086;5.090;2023-11-21T09:55:49;9.20;;;4.85;;
22939;SDS011;11636;52.086;5.090;2023-11-21T09:58:24;9.40;;;4.57;;
22939;SDS011;11636;52.086;5.090;2023-11-21T10:00:53;6.45;;;3.92;;
22939;SDS011;11636;52.086;5.090;2023-11-21T10:03:29;7.03;;;4.72;;
22939;SDS011;11636;52.086;5.090;2023-11-21T10:06:04;8.43;;;4.15;;
22939;SDS011;11636;52.086;5.090;2023-11-21T10:08:38;7.55;;;4.07;;
22939;SDS011;11636;52.086;5.090;2023-11-21T10:11:18;6.60;;;3.30;;
22939;SDS011;11636;52.086;5.090;2023-11-21T10:13:54;6.55;;;3.47;;
22939;SDS011;11636;52.086;5.090;2023-11-21T10:16:25;6.53;;;3.33;;
22939;SDS011;11636;52.086;5.090;2023-11-21T10:18:59;7.20;;;4.15;;
22939;SDS011;11636;52.086;5.090;2023-11-21T10:21:37;7.05;;;4.20;;
22939;SDS011;11636;52.086;5.090;2023-11-21T10:24:12;9.15;;;3.90;;
22939;SDS011;11636;52.086;5.090;2023-11-21T10:26:45;6.97;;;4.15;;
22939;SDS011;11636;52.086;5.090;2023-11-21T10:29:19;7.38;;;4.00;;
22939;SDS011;11636;52.086;5.090;2023-11-21T10:31:54;7.40;;;4.50;;
22939;SDS011;11636;52.086;5.090;2023-11-21T10:34:24;7.25;;;4.07;;
22939;SDS011;11636;52.086;5.090;2023-11-21T10:36:57;8.73;;;4.60;;
22939;SDS011;11636;52.086;5.090;2023-11-21T10:39:32;7.53;;;4.57;;
22939;SDS011;11636;52.086;5.090;2023-11-21T10:41:59;7.35;;;4.55;;
22939;SDS011;11636;52.086;5.090;2023-11-21T10:44:37;8.20;;;3.92;;
22939;SDS011;11636;52.086;5.090;2023-11-21T10:47:05;9.82;;;4.78;;
22939;SDS011;11636;52.086;5.090;2023-11-21T10:49:44;8.30;;;4.75;;
22939;SDS011;11636;52.086;5.090;2023-11-21T10:52:21;9.68;;;5.30;;
22939;SDS011;11636;52.086;5.090;2023-11-21T10:54:59;8.43;;;4.43;;
22939;SDS011;11636;52.086;5.090;2023-11-21T10:57:29;7.80;;;4.28;;
22939;SDS011;11636;52.086;5.090;2023-11-21T11:00:04;9.32;;;5.45;;
22939;SDS011;11636;52.086;5.090;2023-11-21T11:02:38;9.45;;;5.22;;
22939;SDS011;11636;52.086;5.090;2023-11-21T11:05:13;10.80;;;5.60;;
22939;SDS011;11636;52.086;5.090;2023-11-21T11:07:42;9.95;;;5.65;;
22939;SDS011;11636;52.086;5.090;2023-11-21T11:10:16;10.25;;;5.70;;
22939;SDS011;11636;52.086;5.090;2023-11-21T11:12:54;9.32;;;5.45;;
22939;SDS011;11636;52.086;5.090;2023-11-21T11:15:21;9.40;;;5.00;;
22939;SDS011;11636;52.086;5.090;2023-11-21T11:17:49;11.27;;;6.10;;
22939;SDS011;11636;52.086;5.090;2023-11-21T11:20:31;8.73;;;5.32;;
22939;SDS011;11636;52.086;5.090;2023-11-21T11:28:22;10.73;;;5.93;;
22939;SDS011;11636;52.086;5.090;2023-11-21T11:37:05;11.95;;;6.10;;
22939;SDS011;11636;52.086;5.090;2023-11-21T11:39:39;12.68;;;7.03;;
22939;SDS011;11636;52.086;5.090;2023-11-21T11:42:17;12.32;;;6.68;;
22939;SDS011;11636;52.086;5.090;2023-11-21T11:44:46;13.80;;;7.63;;
22939;SDS011;11636;52.086;5.090;2023-11-21T11:47:28;12.80;;;7.30;;
22939;SDS011;11636;52.086;5.090;2023-11-21T11:50:11;15.70;;;7.00;;
22939;SDS011;11636;52.086;5.090;2023-11-21T11:52:52;13.80;;;7.38;;
22939;SDS011;11636;52.086;5.090;2023-11-21T11:55:29;11.90;;;6.50;;
22939;SDS011;11636;52.086;5.090;2023-11-21T11:58:05;13.02;;;6.18;;
22939;SDS011;11636;52.086;5.090;2023-11-21T12:00:39;11.75;;;6.35;;
22939;SDS011;11636;52.086;5.090;2023-11-21T12:03:10;13.80;;;7.57;;
22939;SDS011;11636;52.086;5.090;2023-11-21T12:05:37;14.18;;;7.78;;
22939;SDS011;11636;52.086;5.090;2023-11-21T12:08:13;15.75;;;8.02;;
22939;SDS011;11636;52.086;5.090;2023-11-21T12:10:42;13.90;;;7.72;;
22939;SDS011;11636;52.086;5.090;2023-11-21T12:13:16;16.85;;;9.35;;
22939;SDS011;11636;52.086;5.090;2023-11-21T12:15:43;17.83;;;9.57;;
22939;SDS011;11636;52.086;5.090;2023-11-21T12:18:17;18.90;;;9.95;;
22939;SDS011;11636;52.086;5.090;2023-11-21T12:20:44;14.80;;;8.32;;
22939;SDS011;11636;52.086;5.090;2023-11-21T12:23:14;16.77;;;8.88;;
22939;SDS011;11636;52.086;5.090;2023-11-21T12:25:49;15.25;;;8.40;;
22939;SDS011;11636;52.086;5.090;2023-11-21T12:28:23;15.07;;;8.52;;
22939;SDS011;11636;52.086;5.090;2023-11-21T12:30:50;16.13;;;8.70;;
22939;SDS011;11636;52.086;5.090;2023-11-21T12:35:59;9.85;;;5.72;;
22939;SDS011;11636;52.086;5.090;2023-11-21T12:38:33;11.82;;;6.40;;
22939;SDS011;11636;52.086;5.090;2023-11-21T12:41:09;12.25;;;6.57;;
22939;SDS011;11636;52.086;5.090;2023-11-21T12:43:43;13.40;;;7.65;;
22939;SDS011;11636;52.086;5.090;2023-11-21T12:46:10;16.55;;;8.57;;
22939;SDS011;11636;52.086;5.090;2023-11-21T12:48:44;15.15;;;8.52;;
22939;SDS011;11636;52.086;5.090;2023-11-21T12:51:20;15.05;;;8.38;;
22939;SDS011;11636;52.086;5.090;2023-11-21T12:53:54;17.55;;;9.35;;
22939;SDS011;11636;52.086;5.090;2023-11-21T12:56:22;14.18;;;8.60;;
22939;SDS011;11636;52.086;5.090;2023-11-21T12:58:57;15.77;;;8.77;;
22939;SDS011;11636;52.086;5.090;2023-11-21T13:01:32;16.35;;;8.27;;
22939;SDS011;11636;52.086;5.090;2023-11-21T13:04:00;12.35;;;7.82;;
22939;SDS011;11636;52.086;5.090;2023-11-21T13:06:34;17.35;;;9.70;;
22939;SDS011;11636;52.086;5.090;2023-11-21T13:09:08;13.75;;;8.13;;
22939;SDS011;11636;52.086;5.090;2023-11-21T13:11:48;13.52;;;8.32;;
22939;SDS011;11636;52.086;5.090;2023-11-21T13:14:15;15.18;;;8.40;;
22939;SDS011;11636;52.086;5.090;2023-11-21T13:16:48;14.75;;;8.43;;
22939;SDS011;11636;52.086;5.090;2023-11-21T13:19:22;14.07;;;8.57;;
22939;SDS011;11636;52.086;5.090;2023-11-21T13:21:57;14.63;;;8.50;;
22939;SDS011;11636;52.086;5.090;2023-11-21T13:24:24;13.70;;;8.52;;
22939;SDS011;11636;52.086;5.090;2023-11-21T13:26:59;13.70;;;7.80;;
22939;SDS011;11636;52.086;5.090;2023-11-21T13:29:25;13.30;;;7.05;;
22939;SDS011;11636;52.086;5.090;2023-11-21T13:31:59;11.35;;;6.60;;
22939;SDS011;11636;52.086;5.090;2023-11-21T13:34:27;11.73;;;6.85;;
22939;SDS011;11636;52.086;5.090;2023-11-21T13:37:01;9.90;;;5.47;;
22939;SDS011;11636;52.086;5.090;2023-11-21T13:39:29;10.13;;;5.55;;
22939;SDS011;11636;52.086;5.090;2023-11-21T13:42:05;16.50;;;8.18;;
22939;SDS011;11636;52.086;5.090;2023-11-21T13:44:32;18.20;;;9.88;;
22939;SDS011;11636;52.086;5.090;2023-11-21T13:47:11;17.15;;;10.07;;
22939;SDS011;11636;52.086;5.090;2023-11-21T13:49:37;20.75;;;11.38;;
22939;SDS011;11636;52.086;5.090;2023-11-21T13:52:14;20.85;;;11.85;;
22939;SDS011;11636;52.086;5.090;2023-11-21T13:54:50;21.23;;;11.23;;
22939;SDS011;11636;52.086;5.090;2023-11-21T13:57:23;18.73;;;11.52;;
22939;SDS011;11636;52.086;5.090;2023-11-21T13:59:50;19.85;;;9.95;;
22939;SDS011;11636;52.086;5.090;2023-11-21T14:02:24;17.50;;;10.10;;
22939;SDS011;11636;52.086;5.090;2023-11-21T14:05:05;18.73;;;10.27;;
22939;SDS011;11636;52.086;5.090;2023-11-21T14:07:42;17.10;;;9.38;;
22939;SDS011;11636;52.086;5.090;2023-11-21T14:12:49;14.68;;;7.95;;
22939;SDS011;11636;52.086;5.090;2023-11-21T14:15:16;14.07;;;7.72;;
22939;SDS011;11636;52.086;5.090;2023-11-21T14:17:52;13.55;;;7.57;;
22939;SDS011;11636;52.086;5.090;2023-11-21T14:20:25;15.10;;;8.27;;
22939;SDS011;11636;52.086;5.090;2023-11-21T14:22:59;13.23;;;7.55;;
22939;SDS011;11636;52.086;5.090;2023-11-21T14:25:25;13.23;;;7.72;;
22939;SDS011;11636;52.086;5.090;2023-11-21T14:28:00;15.02;;;8.20;;
22939;SDS011;11636;52.086;5.090;2023-11-21T14:30:27;12.45;;;7.38;;
22939;SDS011;11636;52.086;5.090;2023-11-21T14:33:02;15.90;;;9.07;;
22939;SDS011;11636;52.086;5.090;2023-11-21T14:35:29;15.43;;;8.70;;
22939;SDS011;11636;52.086;5.090;2023-11-21T14:38:06;14.90;;;8.95;;
22939;SDS011;11636;52.086;5.090;2023-11-21T14:40:33;17.55;;;9.90;;
22939;SDS011;11636;52.086;5.090;2023-11-21T14:43:09;16.30;;;9.45;;
22939;SDS011;11636;52.086;5.090;2023-11-21T14:45:36;17.67;;;10.55;;
22939;SDS011;11636;52.086;5.090;2023-11-21T14:48:09;18.33;;;11.15;;
22939;SDS011;11636;52.086;5.090;2023-11-21T14:50:57;18.73;;;11.88;;
22939;SDS011;11636;52.086;5.090;2023-11-21T14:53:37;19.70;;;11.20;;
22939;SDS011;11636;52.086;5.090;2023-11-21T14:56:26;18.77;;;11.85;;
22939;SDS011;11636;52.086;5.090;2023-11-21T14:58:57;21.08;;;13.02;;
22939;SDS011;11636;52.086;5.090;2023-11-21T15:01:35;17.58;;;10.27;;
22939;SDS011;11636;52.086;5.090;2023-11-21T15:04:26;18.63;;;11.05;;
22939;SDS011;11636;52.086;5.090;2023-11-21T15:07:04;18.38;;;11.25;;
22939;SDS011;11636;52.086;5.090;2023-11-21T15:09:38;21.25;;;11.82;;
22939;SDS011;11636;52.086;5.090;2023-11-21T15:12:14;15.82;;;10.05;;
22939;SDS011;11636;52.086;5.090;2023-11-21T15:14:45;17.60;;;10.65;;
22939;SDS011;11636;52.086;5.090;2023-11-21T15:17:28;17.80;;;11.40;;
22939;SDS011;11636;52.086;5.090;2023-11-21T15:20:03;18.85;;;11.75;;
22939;SDS011;11636;52.086;5.090;2023-11-21T15:22:39;20.27;;;12.85;;